KAMA/AMA METAR and TAF weather

Enter ICAO airport designator
Station Type Date Time Source
KAMA METAR 2020/02/20 23:53 UTC NOAA

KAMA 202353Z 04008KT 10SM BKN022 M02/M08 A3060 RMK AO2 SLP388 T10171078 10006 21033 52002


Station Type Date Time Source
KAMA Decoded METAR 2020/02/20 23:53 UTC NOAA

AMARILLO INTERNATIONAL AIRPORT, TX, United States (KAMA) 35-13N 101-43W 1093M
Feb 20, 2020 - 06:53 PM EST / 2020.02.20 2353 UTC
Wind: from the NE (040 degrees) at 9 MPH (8 KT):0
Visibility: 10 mile(s):0
Sky conditions: mostly cloudy
Temperature: 28.9 F (-1.7 C)
Windchill: 21 F (-6 C):1
Dew Point: 18.0 F (-7.8 C)
Relative Humidity: 63%
Pressure (altimeter): 30.6 in. Hg (1036 hPa)
Pressure tendency: 0.01 inches (0.2 hPa) higher than three hours ago
ob: KAMA 202353Z 04008KT 10SM BKN022 M02/M08 A3060 RMK AO2 SLP388 T10171078 10006 21033 52002
cycle: 0

Station Type Date Time Source
KAMA TAF 2020/02/20 18:24 UTC NOAA

TAF KAMA 201721Z 2018/2118 01012KT P6SM OVC008
FM201900 03009KT P6SM OVC020
FM202200 03009KT P6SM SCT100 BKN150
FM210300 07005KT P6SM FEW150 FEW250

Example: see airport list